This is the latest recevied weather packets stored in our database for station/object W5HKR. If no packets are shown the sender has not sent any weather packets the latest 10 day(s).
| Time | Temp. | Humidity | Pressure | Rain* | Wind** | Luminosity | Snow |
|---|---|---|---|---|---|---|---|
| 1778157503 | 18.33° C | 91% | 990.6 hPa | 0 mm | - | - | - |
| 1778157202 | 18.33° C | 91% | 990.6 hPa | 0 mm | - | - | - |
| 1778156874 | 16.67° C | 83% | 988.2 hPa | 0 mm | - | - | - |
| 1778156602 | 18.33° C | 91% | 990.6 hPa | 0 mm | - | - | - |
| 1778156304 | 16.67° C | 82% | 988.1 hPa | 0 mm | - | - | - |
| 1778156003 | 16.67° C | 82% | 988.1 hPa | 0 mm | - | - | - |
| 1778155793 | 16.67° C | 82% | 987.6 hPa | 0 mm | - | - | - |
| 1778155705 | 18.33° C | 91% | 990.6 hPa | 0 mm | - | - | - |
| 1778155402 | 16.67° C | 81% | 987.5 hPa | 0 mm | - | - | - |
| 1778155105 | 16.67° C | 81% | 987.8 hPa | 0 mm | - | - | - |
| 1778154803 | 16.67° C | 81% | 987.3 hPa | 0 mm | - | - | - |
| 1778154713 | 16.67° C | 81% | 987.5 hPa | 0 mm | - | - | - |
| 1778154504 | 18.33° C | 91% | 990.6 hPa | 0 mm | - | - | - |
| 1778154203 | 17.22° C | 80% | 986.8 hPa | 0 mm | - | - | - |
| 1778153905 | 18.33° C | 91% | 990.6 hPa | 0 mm | - | - | - |
| 1778153634 | 18.33° C | 91% | 990.6 hPa | 0 mm | - | - | - |
| 1778153603 | 18.33° C | 91% | 990.6 hPa | 0 mm | - | - | - |
| 1778153303 | 17.22° C | 80% | 986.5 hPa | 0 mm | - | - | - |
| 1778153002 | 17.22° C | 80% | 986.7 hPa | 0 mm | - | - | - |
| 1778152702 | 18.33° C | 91% | 990.6 hPa | 0 mm | - | - | - |
| 1778152553 | 18.33° C | 91% | 990.6 hPa | 0 mm | - | - | - |
| 1778152402 | 18.33° C | 91% | 990.6 hPa | 0 mm | - | - | - |
| 1778152103 | 17.22° C | 80% | 986.4 hPa | 0 mm | - | - | - |
| 1778151803 | 17.22° C | 79% | 986.3 hPa | 0 mm | - | - | - |
| 1778151474 | 18.33° C | 91% | 990.6 hPa | 0 mm | - | - | - |
* Rain latest hour (hover to see other rain measurements)
** Current wind speed in m/s (hover to see current wind gust speed)